createdAt,value
2023-04-22T00:01:49.270Z,99730.16
2023-04-22T00:04:17.914Z,99730.71
2023-04-22T00:06:46.144Z,99730.41
2023-04-22T00:09:14.117Z,99730.19
2023-04-22T00:11:41.987Z,99729.84
2023-04-22T00:14:09.854Z,99724.89
2023-04-22T00:16:37.862Z,99727.63
2023-04-22T00:19:06.189Z,99721.17
2023-04-22T00:21:34.301Z,99721.79
2023-04-22T00:24:03.095Z,99722.75
2023-04-22T00:26:31.379Z,99718.00
2023-04-22T00:28:59.292Z,99717.34
2023-04-22T00:31:27.328Z,99715.98
2023-04-22T00:33:55.342Z,99716.31
2023-04-22T00:36:23.201Z,99720.16
2023-04-22T00:38:51.355Z,99717.44
2023-04-22T00:41:19.233Z,99720.39
2023-04-22T00:43:47.154Z,99722.48
2023-04-22T00:46:16.193Z,99721.17
2023-04-22T00:48:44.043Z,99722.75
2023-04-22T00:51:11.930Z,99723.72
2023-04-22T00:53:39.950Z,99727.21
2023-04-22T00:56:07.997Z,99725.03
2023-04-22T00:58:36.288Z,99728.38
2023-04-22T01:01:04.519Z,99723.53
2023-04-22T01:03:33.316Z,99723.50
2023-04-22T01:06:01.485Z,99730.77
2023-04-22T01:08:32.485Z,99732.05
2023-04-22T01:11:00.457Z,99732.70
2023-04-22T01:13:30.675Z,99731.04
2023-04-22T01:15:59.853Z,99732.98
2023-04-22T01:18:27.623Z,99740.30
2023-04-22T01:20:57.706Z,99739.54
2023-04-22T01:23:25.710Z,99733.81
2023-04-22T01:25:53.701Z,99733.83
2023-04-22T01:28:21.542Z,99733.39
2023-04-22T01:30:49.684Z,99734.02
2023-04-22T01:33:17.834Z,99733.92
2023-04-22T01:35:45.856Z,99737.34
2023-04-22T01:38:14.009Z,99735.56
2023-04-22T01:40:42.101Z,99737.36
2023-04-22T01:43:10.148Z,99739.02
2023-04-22T01:45:38.135Z,99735.77
2023-04-22T01:48:08.956Z,99733.73
2023-04-22T01:50:38.136Z,99736.27
2023-04-22T01:53:07.437Z,99738.42
2023-04-22T01:55:38.227Z,99736.48
2023-04-22T01:58:06.140Z,99737.39
2023-04-22T02:00:34.149Z,99745.60
2023-04-22T02:03:02.200Z,99744.02
2023-04-22T02:05:30.493Z,99746.46
2023-04-22T02:07:58.974Z,99746.36
2023-04-22T02:10:26.908Z,99746.82
2023-04-22T02:12:54.976Z,99751.21
2023-04-22T02:15:23.048Z,99746.11
2023-04-22T02:17:53.085Z,99746.86
2023-04-22T02:20:21.074Z,99746.35
2023-04-22T02:22:50.862Z,99746.81
2023-04-22T02:25:20.965Z,99745.72
2023-04-22T02:27:52.214Z,99743.19
2023-04-22T02:30:21.253Z,99743.57
2023-04-22T02:32:49.504Z,99743.99
2023-04-22T02:35:17.732Z,99741.96
2023-04-22T02:37:45.630Z,99745.44
2023-04-22T02:40:13.552Z,99746.31
2023-04-22T02:42:41.496Z,99746.23
2023-04-22T02:45:10.211Z,99745.81
2023-04-22T02:47:39.135Z,99742.25
2023-04-22T02:50:07.895Z,99744.14
2023-04-22T02:52:36.004Z,99746.52
2023-04-22T02:55:04.114Z,99751.31
2023-04-22T02:57:32.041Z,99751.05
2023-04-22T02:59:59.987Z,99749.61
2023-04-22T03:02:28.046Z,99754.41
2023-04-22T03:05:03.472Z,99752.51
2023-04-22T03:07:31.868Z,99757.09
2023-04-22T03:10:00.265Z,99760.84
2023-04-22T03:12:28.389Z,99764.30
2023-04-22T03:14:56.506Z,99767.42
2023-04-22T03:17:26.200Z,99769.46
2023-04-22T03:19:54.374Z,99767.64
2023-04-22T03:22:22.431Z,99772.71
2023-04-22T03:24:50.729Z,99771.05
2023-04-22T03:27:18.851Z,99774.03
2023-04-22T03:29:46.704Z,99777.59
2023-04-22T03:32:14.685Z,99777.15
2023-04-22T03:34:43.054Z,99774.95
2023-04-22T03:37:11.040Z,99782.23
2023-04-22T03:39:39.302Z,99783.15
2023-04-22T03:42:08.195Z,99786.73
2023-04-22T03:44:37.614Z,99789.55
2023-04-22T03:47:06.019Z,99791.16
2023-04-22T03:49:39.502Z,99785.01
2023-04-22T03:52:07.879Z,99788.83
2023-04-22T03:54:36.571Z,99792.13
2023-04-22T03:57:05.821Z,99794.73
2023-04-22T03:59:34.533Z,99798.48
2023-04-22T04:02:02.616Z,99798.48
2023-04-22T04:04:32.722Z,99808.88
2023-04-22T04:07:01.733Z,99806.73
2023-04-22T04:09:30.024Z,99806.88
2023-04-22T04:11:58.202Z,99811.80
2023-04-22T04:14:26.875Z,99815.33
2023-04-22T04:16:54.899Z,99817.59
2023-04-22T04:19:31.503Z,99819.89
2023-04-22T04:22:01.101Z,99820.83
2023-04-22T04:24:30.509Z,99821.64
2023-04-22T04:27:04.394Z,99821.25
2023-04-22T04:29:38.195Z,99827.70
2023-04-22T04:32:18.890Z,99825.48
2023-04-22T04:34:47.333Z,99824.32
2023-04-22T04:37:16.863Z,99830.75
2023-04-22T04:40:06.190Z,99832.44
2023-04-22T04:42:43.938Z,99837.19
2023-04-22T04:45:17.801Z,99836.04
2023-04-22T04:47:46.396Z,99837.06
2023-04-22T04:50:20.276Z,99842.38
2023-04-22T04:52:52.801Z,99840.69
2023-04-22T04:55:24.986Z,99843.43
2023-04-22T04:57:53.235Z,99839.81
2023-04-22T05:00:21.337Z,99841.67
2023-04-22T05:02:49.866Z,99838.66
2023-04-22T05:05:18.163Z,99842.48
2023-04-22T05:07:46.021Z,99841.73
2023-04-22T05:10:15.498Z,99837.52
2023-04-22T05:12:46.253Z,99842.38
2023-04-22T05:15:16.674Z,99837.09
2023-04-22T05:17:44.710Z,99835.88
2023-04-22T05:20:12.890Z,99837.54
2023-04-22T05:22:45.927Z,99835.17
2023-04-22T05:25:14.522Z,99838.71
2023-04-22T05:27:46.327Z,99840.10
2023-04-22T05:30:14.453Z,99839.91
2023-04-22T05:32:42.347Z,99843.02
2023-04-22T05:35:10.575Z,99843.99
2023-04-22T05:37:39.103Z,99844.70
2023-04-22T05:40:08.819Z,99841.06
2023-04-22T05:42:38.879Z,99849.73
2023-04-22T05:45:07.394Z,99847.27
2023-04-22T05:47:35.985Z,99845.34
2023-04-22T05:50:05.390Z,99844.38
2023-04-22T05:52:39.362Z,99850.16
2023-04-22T05:55:15.657Z,99844.98
2023-04-22T05:57:44.264Z,99843.61
2023-04-22T06:00:29.528Z,99846.67
2023-04-22T06:03:07.794Z,99846.38
2023-04-22T06:05:37.097Z,99848.14
2023-04-22T06:08:05.073Z,99847.21
2023-04-22T06:10:35.442Z,99851.55
2023-04-22T06:13:03.670Z,99849.21
2023-04-22T06:15:31.568Z,99852.94
2023-04-22T06:17:59.875Z,99854.71
2023-04-22T06:20:28.242Z,99852.64
2023-04-22T06:22:56.382Z,99853.05
2023-04-22T06:25:24.670Z,99857.10
2023-04-22T06:27:52.840Z,99857.42
2023-04-22T06:30:21.784Z,99856.94
2023-04-22T06:32:55.184Z,99856.30
2023-04-22T06:35:23.167Z,99861.94
2023-04-22T06:37:51.265Z,99862.23
2023-04-22T06:40:19.504Z,99862.05
2023-04-22T06:43:05.356Z,99862.19
2023-04-22T06:45:42.476Z,99865.33
2023-04-22T06:48:33.359Z,99866.28
2023-04-22T06:51:17.272Z,99870.23
2023-04-22T06:53:46.477Z,99867.24
2023-04-22T06:56:16.391Z,99866.66
2023-04-22T06:58:44.358Z,99870.61
2023-04-22T07:01:12.338Z,99871.66
2023-04-22T07:03:41.505Z,99870.06
2023-04-22T07:06:11.355Z,99868.46
2023-04-22T07:08:40.746Z,99872.08
2023-04-22T07:11:09.285Z,99871.85
2023-04-22T07:13:40.824Z,99871.70
2023-04-22T07:16:08.719Z,99873.73
2023-04-22T07:18:36.907Z,99873.75
2023-04-22T07:21:05.110Z,99876.19
2023-04-22T07:23:33.024Z,99874.30
2023-04-22T07:26:01.182Z,99881.36
2023-04-22T07:28:29.378Z,99878.98
2023-04-22T07:30:57.207Z,99881.46
2023-04-22T07:33:25.262Z,99882.12
2023-04-22T07:35:53.199Z,99882.27
2023-04-22T07:38:21.021Z,99882.19
2023-04-22T07:40:48.892Z,99887.39
2023-04-22T07:43:17.566Z,99887.37
2023-04-22T07:45:45.652Z,99890.88
2023-04-22T07:48:13.680Z,99896.27
2023-04-22T07:50:41.565Z,99895.27
2023-04-22T07:53:10.909Z,99895.88
2023-04-22T07:55:39.145Z,99894.61
2023-04-22T07:58:07.258Z,99895.67
2023-04-22T08:00:35.885Z,99898.55
2023-04-22T08:03:03.925Z,99903.56
2023-04-22T08:05:32.146Z,99902.73
2023-04-22T08:08:00.178Z,99901.94
2023-04-22T08:10:28.154Z,99902.40
2023-04-22T08:12:56.360Z,99906.66
2023-04-22T08:15:24.126Z,99905.75
2023-04-22T08:17:52.157Z,99909.19
2023-04-22T08:20:20.197Z,99909.54
2023-04-22T08:22:48.724Z,99911.64
2023-04-22T08:25:16.699Z,99914.56
2023-04-22T08:27:44.608Z,99915.19
2023-04-22T08:30:12.944Z,99916.71
2023-04-22T08:32:41.230Z,99910.50
2023-04-22T08:35:09.656Z,99906.44
2023-04-22T08:37:37.413Z,99906.77
2023-04-22T08:40:07.040Z,99908.73
2023-04-22T08:42:35.113Z,99905.89
2023-04-22T08:45:04.112Z,99905.36
2023-04-22T08:47:35.778Z,99906.63
2023-04-22T08:50:04.416Z,99906.67
2023-04-22T08:52:33.205Z,99903.41
2023-04-22T08:55:02.094Z,99901.33
2023-04-22T08:57:31.226Z,99905.81
2023-04-22T08:59:59.059Z,99906.87
2023-04-22T09:02:27.349Z,99907.36
2023-04-22T09:04:55.255Z,99907.30
2023-04-22T09:07:32.212Z,99908.23
2023-04-22T09:10:00.130Z,99907.42
2023-04-22T09:12:28.524Z,99901.57
2023-04-22T09:14:56.499Z,99905.64
2023-04-22T09:17:34.982Z,99901.70
2023-04-22T09:20:04.325Z,99901.58
2023-04-22T09:22:44.550Z,99899.50
2023-04-22T09:26:44.788Z,99898.07
2023-04-22T09:29:15.938Z,99896.98
2023-04-22T09:31:49.268Z,99898.34
2023-04-22T09:34:17.139Z,99892.58
2023-04-22T09:36:46.910Z,99893.67
2023-04-22T09:39:15.005Z,99897.42
2023-04-22T09:41:43.071Z,99898.91
2023-04-22T09:44:16.920Z,99901.96
2023-04-22T09:46:44.893Z,99906.69
2023-04-22T09:49:12.851Z,99909.52
2023-04-22T09:51:42.149Z,99910.06
2023-04-22T09:54:10.782Z,99905.39
2023-04-22T09:56:48.871Z,99908.39
2023-04-22T09:59:28.426Z,99905.65
2023-04-22T10:02:00.922Z,99905.66
2023-04-22T10:04:29.277Z,99908.98
2023-04-22T10:06:57.171Z,99911.10
2023-04-22T10:09:25.348Z,99908.48
2023-04-22T10:11:55.010Z,99914.89
2023-04-22T10:14:23.820Z,99915.02
2023-04-22T10:16:58.648Z,99915.09
2023-04-22T10:19:27.021Z,99917.90
2023-04-22T10:21:59.656Z,99913.48
2023-04-22T10:24:28.268Z,99919.50
2023-04-22T10:26:57.986Z,99921.80
2023-04-22T10:29:26.898Z,99918.47
2023-04-22T10:31:57.357Z,99914.82
2023-04-22T10:34:25.555Z,99914.91
2023-04-22T10:37:07.328Z,99915.35
2023-04-22T10:39:35.612Z,99914.27
2023-04-22T10:42:03.457Z,99915.23
2023-04-22T10:44:44.973Z,99917.56
2023-04-22T10:47:24.107Z,99912.77
2023-04-22T10:49:52.482Z,99918.68
2023-04-22T10:52:32.149Z,99913.55
2023-04-22T10:55:00.026Z,99919.22
2023-04-22T10:57:41.821Z,99921.76
2023-04-22T11:00:23.088Z,99919.73
2023-04-22T11:03:05.371Z,99924.21
2023-04-22T11:05:35.919Z,99920.23
2023-04-22T11:08:25.643Z,99916.76
2023-04-22T11:10:55.353Z,99913.05
2023-04-22T11:13:23.306Z,99911.11
2023-04-22T11:15:54.374Z,99914.20
2023-04-22T11:18:26.695Z,99922.70
2023-04-22T11:20:54.580Z,99926.77
2023-04-22T11:23:24.854Z,99930.67
2023-04-22T11:25:56.330Z,99928.31
2023-04-22T11:28:24.245Z,99927.71
2023-04-22T11:30:52.592Z,99928.85
2023-04-22T11:33:20.964Z,99924.77
2023-04-22T11:35:49.373Z,99919.98
2023-04-22T11:38:17.345Z,99920.91
2023-04-22T11:40:48.858Z,99923.58
2023-04-22T11:43:18.899Z,99920.44
2023-04-22T11:45:47.103Z,99923.84
2023-04-22T11:48:15.697Z,99913.87
2023-04-22T11:50:48.047Z,99920.92
2023-04-22T11:53:17.450Z,99920.75
2023-04-22T11:55:46.465Z,99922.89
2023-04-22T11:58:17.187Z,99922.40
2023-04-22T12:00:49.659Z,99924.85
2023-04-22T12:03:19.342Z,99924.52
2023-04-22T12:05:51.417Z,99921.08
2023-04-22T12:08:21.349Z,99929.33
2023-04-22T12:11:00.737Z,99933.03
2023-04-22T12:13:30.591Z,99935.86
2023-04-22T12:16:14.423Z,99928.92
2023-04-22T12:18:51.837Z,99920.92
2023-04-22T12:21:21.832Z,99922.54
2023-04-22T12:23:50.781Z,99922.23
2023-04-22T12:26:23.086Z,99927.58
2023-04-22T12:28:53.277Z,99925.38
2023-04-22T12:31:21.835Z,99920.91
2023-04-22T12:33:50.286Z,99924.90
2023-04-22T12:36:20.978Z,99919.48
2023-04-22T12:38:49.355Z,99918.17
2023-04-22T12:41:17.164Z,99922.11
2023-04-22T12:43:45.357Z,99923.11
2023-04-22T12:46:13.316Z,99926.42
2023-04-22T12:48:42.766Z,99926.50
2023-04-22T12:51:10.764Z,99922.98
2023-04-22T12:53:38.634Z,99923.56
2023-04-22T12:56:06.473Z,99921.90
2023-04-22T12:58:34.444Z,99923.69
2023-04-22T13:01:02.309Z,99927.00
2023-04-22T13:03:30.510Z,99920.85
2023-04-22T13:05:59.268Z,99927.93
2023-04-22T13:08:27.939Z,99923.06
2023-04-22T13:10:55.836Z,99924.13
2023-04-22T13:13:23.880Z,99924.41
2023-04-22T13:15:54.159Z,99923.20
2023-04-22T13:18:23.401Z,99924.60
2023-04-22T13:20:51.727Z,99922.80
2023-04-22T13:23:21.949Z,99926.61
2023-04-22T13:25:50.323Z,99926.11
2023-04-22T13:28:18.545Z,99930.52
2023-04-22T13:30:46.318Z,99931.02
2023-04-22T13:33:14.365Z,99931.36
2023-04-22T13:35:42.832Z,99934.19
2023-04-22T13:38:10.768Z,99935.70
2023-04-22T13:40:38.728Z,99936.29
2023-04-22T13:43:08.650Z,99928.23
2023-04-22T13:45:36.940Z,99926.52
2023-04-22T13:48:05.174Z,99928.14
2023-04-22T13:50:34.203Z,99927.81
2023-04-22T13:53:03.992Z,99933.38
2023-04-22T13:55:32.619Z,99933.17
2023-04-22T13:58:01.298Z,99936.84
2023-04-22T14:00:29.606Z,99938.64
2023-04-22T14:02:57.857Z,99938.61
2023-04-22T14:05:26.154Z,99943.16
2023-04-22T14:07:54.478Z,99942.91
2023-04-22T14:10:22.519Z,99940.51
2023-04-22T14:12:50.716Z,99940.30
2023-04-22T14:15:18.668Z,99937.73
2023-04-22T14:17:49.500Z,99937.73
2023-04-22T14:20:17.753Z,99938.04
2023-04-22T14:22:46.444Z,99938.87
2023-04-22T14:25:14.718Z,99941.61
2023-04-22T14:27:42.955Z,99941.91
2023-04-22T14:30:11.941Z,99941.18
2023-04-22T14:32:40.444Z,99940.30
2023-04-22T14:35:08.369Z,99944.79
2023-04-22T14:37:37.032Z,99945.87
2023-04-22T14:40:05.823Z,99942.86
2023-04-22T14:42:33.849Z,99945.56
2023-04-22T14:45:01.871Z,99946.50
2023-04-22T14:47:30.321Z,99942.83
2023-04-22T14:49:58.329Z,99947.23
2023-04-22T14:52:26.291Z,99946.80
2023-04-22T14:54:54.349Z,99950.30
2023-04-22T14:57:22.393Z,99950.09
2023-04-22T14:59:50.394Z,99952.39
2023-04-22T15:02:18.431Z,99955.95
2023-04-22T15:04:46.538Z,99955.44
2023-04-22T15:07:14.924Z,99956.55
2023-04-22T15:09:43.018Z,99955.48
2023-04-22T15:12:11.483Z,99958.45
2023-04-22T15:14:39.648Z,99962.01
2023-04-22T15:17:07.750Z,99963.44
2023-04-22T15:19:36.097Z,99961.20
2023-04-22T15:22:03.886Z,99963.67
2023-04-22T15:26:54.893Z,99960.65
2023-04-22T15:29:23.113Z,99964.58
2023-04-22T15:31:52.513Z,99969.63
2023-04-22T15:34:23.422Z,99967.73
2023-04-22T15:36:51.256Z,99970.09
2023-04-22T15:39:19.405Z,99969.56
2023-04-22T15:41:47.230Z,99969.13
2023-04-22T15:44:16.852Z,99970.66
2023-04-22T15:46:45.752Z,99972.29
2023-04-22T15:49:14.985Z,99977.30
2023-04-22T15:51:43.374Z,99976.86
2023-04-22T15:54:12.529Z,99976.21
2023-04-22T15:56:40.649Z,99976.13
2023-04-22T15:59:08.669Z,99975.80
2023-04-22T16:01:37.905Z,99976.48
2023-04-22T16:04:07.035Z,99976.55
2023-04-22T16:06:36.617Z,99981.24
2023-04-22T16:09:05.375Z,99982.14
2023-04-22T16:11:33.829Z,99981.25
2023-04-22T16:14:01.668Z,99980.27
2023-04-22T16:16:29.735Z,99982.62
2023-04-22T16:18:59.260Z,99983.13
2023-04-22T16:21:28.658Z,99994.06
2023-04-22T16:23:56.519Z,99994.23
2023-04-22T16:26:24.449Z,100001.30
2023-04-22T16:28:52.559Z,99999.66
2023-04-22T16:31:23.067Z,100004.20
2023-04-22T16:33:51.437Z,100004.19
2023-04-22T16:36:19.406Z,100006.70
2023-04-22T16:38:47.305Z,100005.23
2023-04-22T16:41:15.502Z,100007.26
2023-04-22T16:43:43.358Z,100008.58
2023-04-22T16:46:11.339Z,100014.17
2023-04-22T16:48:39.410Z,100013.44
2023-04-22T16:51:07.749Z,100013.23
2023-04-22T16:53:35.911Z,100014.23
2023-04-22T16:56:04.085Z,100018.85
2023-04-22T16:58:32.157Z,100019.08
2023-04-22T17:01:00.120Z,100024.69
2023-04-22T17:03:28.305Z,100023.20
2023-04-22T17:05:56.526Z,100025.56
2023-04-22T17:08:24.435Z,100024.80
2023-04-22T17:10:52.589Z,100030.66
2023-04-22T17:13:20.962Z,100030.84
2023-04-22T17:15:48.824Z,100034.98
2023-04-22T17:18:16.688Z,100037.48
2023-04-22T17:20:44.592Z,100040.02
2023-04-22T17:23:12.576Z,100042.66
2023-04-22T17:25:41.042Z,100046.84
2023-04-22T17:28:10.999Z,100049.27
2023-04-22T17:30:38.757Z,100052.73
2023-04-22T17:33:06.655Z,100063.01
2023-04-22T17:35:34.759Z,100059.38
2023-04-22T17:38:02.632Z,100062.20
2023-04-22T17:40:30.813Z,100067.02
2023-04-22T17:42:58.915Z,100068.70
2023-04-22T17:45:26.913Z,100070.09
2023-04-22T17:47:54.841Z,100076.23
2023-04-22T17:50:23.352Z,100073.56
2023-04-22T17:52:51.274Z,100082.67
2023-04-22T17:55:19.132Z,100088.52
2023-04-22T17:57:47.090Z,100091.73
2023-04-22T18:00:16.873Z,100091.42
2023-04-22T18:02:45.003Z,100092.31
2023-04-22T18:05:13.098Z,100095.63
2023-04-22T18:07:41.504Z,100100.67
2023-04-22T18:10:10.423Z,100105.48
2023-04-22T18:12:39.613Z,100106.23
2023-04-22T18:15:07.730Z,100109.23
2023-04-22T18:17:36.702Z,100114.68
2023-04-22T18:20:16.730Z,100114.33
2023-04-22T18:22:49.573Z,100113.62
2023-04-22T18:25:17.830Z,100113.97
2023-04-22T18:27:46.487Z,100114.38
2023-04-22T18:30:14.707Z,100119.22
2023-04-22T18:32:42.728Z,100118.90
2023-04-22T18:35:11.161Z,100119.90
2023-04-22T18:37:39.049Z,100121.85
2023-04-22T18:40:08.213Z,100121.63
2023-04-22T18:42:36.486Z,100120.27
2023-04-22T18:45:05.553Z,100126.12
2023-04-22T18:47:33.618Z,100128.15
2023-04-22T18:50:01.672Z,100132.33
2023-04-22T18:52:29.695Z,100130.80
2023-04-22T18:54:57.536Z,100129.30
2023-04-22T18:57:25.714Z,100132.40
2023-04-22T18:59:54.634Z,100135.34
2023-04-22T19:02:22.704Z,100134.58
2023-04-22T19:04:51.136Z,100135.40
2023-04-22T19:07:19.160Z,100138.21
2023-04-22T19:09:46.968Z,100140.73
2023-04-22T19:12:16.718Z,100139.84
2023-04-22T19:14:44.566Z,100144.20
2023-04-22T19:17:12.373Z,100144.64
2023-04-22T19:19:40.481Z,100142.83
2023-04-22T19:22:09.667Z,100146.15
2023-04-22T19:24:39.493Z,100144.33
2023-04-22T19:27:12.508Z,100144.27
2023-04-22T19:29:41.834Z,100148.27
2023-04-22T19:32:11.053Z,100149.13
2023-04-22T19:34:39.201Z,100148.29
2023-04-22T19:37:08.377Z,100152.48
2023-04-22T19:39:36.731Z,100152.73
2023-04-22T19:42:05.345Z,100151.11
2023-04-22T19:44:33.736Z,100154.66
2023-04-22T19:47:01.603Z,100155.55
2023-04-22T19:49:31.786Z,100158.50
2023-04-22T19:52:01.101Z,100158.97
2023-04-22T19:54:29.273Z,100163.70
2023-04-22T19:56:58.565Z,100162.11
2023-04-22T19:59:31.187Z,100163.88
2023-04-22T20:01:59.693Z,100166.06
2023-04-22T20:04:28.153Z,100167.05
2023-04-22T20:06:57.170Z,100170.59
2023-04-22T20:09:26.731Z,100167.98
2023-04-22T20:11:55.164Z,100169.19
2023-04-22T20:14:23.010Z,100171.73
2023-04-22T20:16:51.314Z,100171.18
2023-04-22T20:19:20.064Z,100172.79
2023-04-22T20:21:50.834Z,100174.39
2023-04-22T20:24:21.934Z,100176.54
2023-04-22T20:26:49.855Z,100178.15
2023-04-22T20:29:17.807Z,100181.77
2023-04-22T20:31:46.767Z,100180.75
2023-04-22T20:34:14.895Z,100182.77
2023-04-22T20:36:42.807Z,100177.91
2023-04-22T20:39:12.255Z,100180.77
2023-04-22T20:41:40.497Z,100183.41
2023-04-22T20:44:08.585Z,100179.86
2023-04-22T20:46:37.930Z,100182.72
2023-04-22T20:49:06.732Z,100181.97
2023-04-22T20:51:35.174Z,100182.38
2023-04-22T20:54:04.752Z,100182.87
2023-04-22T20:56:32.846Z,100184.66
2023-04-22T20:59:00.951Z,100183.19
2023-04-22T21:01:30.303Z,100184.42
2023-04-22T21:03:58.517Z,100184.05
2023-04-22T21:06:28.049Z,100181.63
2023-04-22T21:08:56.121Z,100180.27
2023-04-22T21:11:24.479Z,100178.16
2023-04-22T21:13:54.481Z,100178.63
2023-04-22T21:16:23.606Z,100177.58
2023-04-22T21:18:51.796Z,100179.15
2023-04-22T21:21:19.761Z,100182.98
2023-04-22T21:23:48.017Z,100181.48
2023-04-22T21:26:16.260Z,100181.02
2023-04-22T21:28:44.863Z,100183.11
2023-04-22T21:31:13.591Z,100183.06
2023-04-22T21:33:41.490Z,100185.00
2023-04-22T21:36:09.451Z,100181.75
2023-04-22T21:38:37.407Z,100181.28
2023-04-22T21:41:05.390Z,100183.35
2023-04-22T21:43:33.330Z,100184.96
2023-04-22T21:46:01.358Z,100187.52
2023-04-22T21:48:29.470Z,100184.09
2023-04-22T21:50:57.570Z,100185.39
2023-04-22T21:53:25.581Z,100187.77
2023-04-22T21:55:53.572Z,100186.95
2023-04-22T21:58:21.695Z,100192.55
2023-04-22T22:00:49.620Z,100187.63
2023-04-22T22:03:17.658Z,100196.91
2023-04-22T22:05:45.725Z,100200.45
2023-04-22T22:08:14.010Z,100200.43
2023-04-22T22:10:43.049Z,100199.70
2023-04-22T22:13:11.382Z,100201.37
2023-04-22T22:15:39.312Z,100196.85
2023-04-22T22:18:07.546Z,100196.58
2023-04-22T22:20:36.829Z,100203.48
2023-04-22T22:23:04.905Z,100207.04
2023-04-22T22:25:33.124Z,100207.25
2023-04-22T22:28:01.095Z,100201.17
2023-04-22T22:30:30.054Z,100198.98
2023-04-22T22:32:57.897Z,100198.02
2023-04-22T22:35:26.028Z,100199.30
2023-04-22T22:37:53.915Z,100197.55
2023-04-22T22:40:21.846Z,100194.66
2023-04-22T22:42:49.916Z,100199.50
2023-04-22T22:45:17.782Z,100198.05
2023-04-22T22:47:46.066Z,100201.78
2023-04-22T22:50:14.509Z,100199.04
2023-04-22T22:52:42.467Z,100196.36
2023-04-22T22:55:10.821Z,100196.79
2023-04-22T22:57:38.896Z,100203.08
2023-04-22T23:00:09.568Z,100205.59
2023-04-22T23:02:37.582Z,100208.80
2023-04-22T23:05:10.594Z,100203.80
2023-04-22T23:07:40.061Z,100207.65
2023-04-22T23:10:08.697Z,100211.83
2023-04-22T23:12:36.939Z,100207.77
2023-04-22T23:15:05.856Z,100208.52
2023-04-22T23:17:33.837Z,100209.38
2023-04-22T23:20:02.158Z,100209.37
2023-04-22T23:22:32.054Z,100211.60
2023-04-22T23:25:00.432Z,100209.52
2023-04-22T23:27:28.219Z,100207.80
2023-04-22T23:29:56.404Z,100208.65
2023-04-22T23:32:26.528Z,100206.30
2023-04-22T23:34:54.511Z,100210.21
2023-04-22T23:37:22.588Z,100209.02
2023-04-22T23:39:50.467Z,100210.27
2023-04-22T23:42:18.211Z,100215.40
2023-04-22T23:44:46.329Z,100212.39
2023-04-22T23:47:14.687Z,100215.70
2023-04-22T23:49:42.712Z,100218.44
2023-04-22T23:52:13.018Z,100217.71
2023-04-22T23:54:41.598Z,100217.56
2023-04-22T23:57:10.219Z,100216.05
2023-04-22T23:59:38.360Z,100212.48
